Time;durP1;ratioP1;P1;durP2;ratioP2;P2;SDS_P1;SDS_P2;PMS_P1;PMS_P2;Temp;Humidity;BMP_temperature;BMP_pressure;BME280_temperature;BME280_humidity;BME280_pressure;Samples;Min_cycle;Max_cycle;Signal;HPM_P1;HPM_P2
2022/05/15 00:02:11;;;;;;;;;;;11.50;99.90;;;;;;5083515;28;19959;-72
2022/05/15 00:04:37;;;;;;;;;;;11.50;99.90;;;;;;5081247;28;19916;-72
2022/05/15 00:07:03;;;;;;;;;;;11.40;99.90;;;;;;5080891;28;20014;-73
2022/05/15 00:09:29;;;;;;;;;;;11.30;99.90;;;;;;5084843;28;19957;-72
2022/05/15 00:11:55;;;;;;;;;;;11.30;99.90;;;;;;5084604;28;19920;-73
2022/05/15 00:14:20;;;;;;;;;;;11.30;99.90;;;;;;5084540;28;19917;-72
2022/05/15 00:16:46;;;;;;;;;;;11.40;99.90;;;;;;5077750;28;20304;-72
2022/05/15 00:19:12;;;;;;;;;;;11.30;99.90;;;;;;5082349;28;20006;-72
2022/05/15 00:21:38;;;;;;;;;;;11.30;99.90;;;;;;5074400;28;20303;-72
2022/05/15 00:24:04;;;;;;;;;;;11.20;99.90;;;;;;5078616;28;19916;-72
2022/05/15 00:26:31;;;;;;;;;;;11.20;99.90;;;;;;5077700;28;19912;-72
2022/05/15 00:28:56;;;;;;;;;;;11.10;99.90;;;;;;5075365;28;19920;-73
2022/05/15 00:31:23;;;;;;;;;;;11.10;99.90;;;;;;5074436;28;19995;-72
2022/05/15 00:33:49;;;;;;;;;;;11.10;99.90;;;;;;5075090;28;19923;-73
2022/05/15 00:36:15;;;;;;;;;;;11.10;99.90;;;;;;5086352;28;19935;-72
2022/05/15 00:38:40;;;;;;;;;;;11.00;99.90;;;;;;5078812;28;19942;-72
2022/05/15 00:41:07;;;;;;;;;;;11.00;99.90;;;;;;5077657;28;19913;-72
2022/05/15 00:43:49;;;;;;;;;;;11.00;99.90;;;;;;5088775;28;20310;-72
2022/05/15 00:46:26;;;;;;;;;;;10.90;99.90;;;;;;5080569;28;20308;-71
2022/05/15 00:48:52;;;;;;;;;;;11.00;99.90;;;;;;5092631;28;19916;-72
2022/05/15 00:51:23;;;;;;;;;;;10.90;99.90;;;;;;5094645;28;20263;-72
2022/05/15 00:53:50;;;;;;;;;;;11.00;99.90;;;;;;5085282;28;20239;-72
2022/05/15 00:56:19;;;;;;;;;;;11.00;99.90;;;;;;5091304;28;20356;-72
2022/05/15 00:58:52;;;;;;;;;;;11.00;99.90;;;;;;5090366;28;19917;-72
2022/05/15 01:01:18;;;;;;;;;;;11.00;99.90;;;;;;5092168;28;20394;-72
2022/05/15 01:03:44;;;;;;;;;;;11.00;99.90;;;;;;5079472;28;20011;-72
2022/05/15 01:06:10;;;;;;;;;;;11.10;99.90;;;;;;5092371;28;19908;-72
2022/05/15 01:08:35;;;;;;;;;;;11.00;99.90;;;;;;5093437;28;20561;-72
2022/05/15 01:11:05;;;;;;;;;;;11.10;99.90;;;;;;5091824;28;19912;-72
2022/05/15 01:13:33;;;;;;;;;;;11.10;99.90;;;;;;5087871;28;19924;-72
2022/05/15 01:16:00;;;;;;;;;;;11.00;99.90;;;;;;5093081;28;19958;-72
2022/05/15 01:18:27;;;;;;;;;;;11.00;99.90;;;;;;5088685;28;19936;-72
2022/05/15 01:20:54;;;;;;;;;;;11.00;99.90;;;;;;5089051;28;19912;-72
2022/05/15 01:23:19;;;;;;;;;;;11.00;99.90;;;;;;5087644;28;20307;-72
2022/05/15 01:25:46;;;;;;;;;;;11.00;99.90;;;;;;5090165;28;19923;-72
2022/05/15 01:28:16;;;;;;;;;;;11.00;99.90;;;;;;5093625;28;20351;-72
2022/05/15 01:30:45;;;;;;;;;;;11.00;99.90;;;;;;5092013;28;19941;-72
2022/05/15 01:33:10;;;;;;;;;;;11.00;99.90;;;;;;5089867;28;19916;-72
2022/05/15 01:35:36;;;;;;;;;;;10.90;99.90;;;;;;5090421;28;20287;-72
2022/05/15 01:38:02;;;;;;;;;;;10.90;99.90;;;;;;5091754;28;19912;-72
2022/05/15 01:40:28;;;;;;;;;;;10.90;99.90;;;;;;5092898;28;20306;-72
2022/05/15 01:42:53;;;;;;;;;;;10.90;99.90;;;;;;5092808;28;19916;-72
2022/05/15 01:45:19;;;;;;;;;;;10.90;99.90;;;;;;5093554;28;19919;-72
2022/05/15 01:47:44;;;;;;;;;;;10.80;99.90;;;;;;5098198;28;19931;-72
2022/05/15 01:50:11;;;;;;;;;;;10.80;99.90;;;;;;5097936;28;20003;-72
2022/05/15 01:52:38;;;;;;;;;;;10.80;99.90;;;;;;5087141;28;19944;-72
2022/05/15 01:55:04;;;;;;;;;;;10.70;99.90;;;;;;5079453;28;19920;-72
2022/05/15 01:57:29;;;;;;;;;;;10.80;99.90;;;;;;5091603;28;19908;-72
2022/05/15 01:59:55;;;;;;;;;;;10.70;99.90;;;;;;5077720;28;19915;-72
2022/05/15 02:02:20;;;;;;;;;;;10.70;99.90;;;;;;5080656;28;19916;-72
2022/05/15 02:04:46;;;;;;;;;;;10.70;99.90;;;;;;5089521;28;19966;-72
2022/05/15 02:07:12;;;;;;;;;;;10.70;99.90;;;;;;5093036;28;20011;-72
2022/05/15 02:09:38;;;;;;;;;;;10.60;99.90;;;;;;5088439;28;19912;-72
2022/05/15 02:12:03;;;;;;;;;;;10.50;99.90;;;;;;5090235;28;19959;-72
2022/05/15 02:14:29;;;;;;;;;;;10.60;99.90;;;;;;5085999;28;19951;-72
2022/05/15 02:16:55;;;;;;;;;;;10.50;99.90;;;;;;5087900;28;19958;-72
2022/05/15 02:19:20;;;;;;;;;;;10.40;99.90;;;;;;5088008;28;19916;-72
2022/05/15 02:21:47;;;;;;;;;;;10.40;99.90;;;;;;5093461;28;19965;-72
2022/05/15 02:24:13;;;;;;;;;;;10.40;99.90;;;;;;5088020;28;19914;-72
2022/05/15 02:26:39;;;;;;;;;;;10.30;99.90;;;;;;5078840;28;19912;-72
2022/05/15 02:29:05;;;;;;;;;;;10.30;99.90;;;;;;5091028;28;19916;-72
2022/05/15 02:31:31;;;;;;;;;;;10.20;99.90;;;;;;5088707;28;20305;-72
2022/05/15 02:33:58;;;;;;;;;;;10.30;99.90;;;;;;5087315;28;19924;-72
2022/05/15 02:36:24;;;;;;;;;;;10.20;99.90;;;;;;5090842;28;19919;-72
2022/05/15 02:38:50;;;;;;;;;;;10.20;99.90;;;;;;5092662;28;19959;-72
2022/05/15 02:41:15;;;;;;;;;;;10.20;99.90;;;;;;5075363;28;19975;-72
2022/05/15 02:43:41;;;;;;;;;;;10.20;99.90;;;;;;5091537;28;19919;-72
2022/05/15 02:46:07;;;;;;;;;;;10.20;99.90;;;;;;5084703;28;20011;-72
2022/05/15 02:51:17;;;;;;;;;;;10.10;99.90;;;;;;5095000;28;19934;-72
2022/05/15 02:53:43;;;;;;;;;;;10.00;99.90;;;;;;5085410;28;20291;-72
2022/05/15 02:56:11;;;;;;;;;;;10.00;99.90;;;;;;5084779;28;19913;-72
2022/05/15 02:58:37;;;;;;;;;;;9.90;99.90;;;;;;5079568;28;19912;-72
2022/05/15 03:01:03;;;;;;;;;;;9.90;99.90;;;;;;5087696;28;19981;-72
2022/05/15 03:03:29;;;;;;;;;;;9.90;99.90;;;;;;5091677;28;20002;-73
2022/05/15 03:05:54;;;;;;;;;;;9.90;99.90;;;;;;5085705;28;20294;-72
2022/05/15 03:08:20;;;;;;;;;;;9.80;99.90;;;;;;5091233;28;20007;-73
2022/05/15 03:10:46;;;;;;;;;;;9.80;99.90;;;;;;5087100;28;19913;-72
2022/05/15 03:13:11;;;;;;;;;;;9.90;99.90;;;;;;5089155;28;19953;-72
2022/05/15 03:15:37;;;;;;;;;;;9.80;99.90;;;;;;5091640;28;20200;-72
2022/05/15 03:18:03;;;;;;;;;;;9.90;99.90;;;;;;5089967;28;19948;-72
2022/05/15 03:20:29;;;;;;;;;;;9.80;99.90;;;;;;5090695;28;20018;-72
2022/05/15 03:22:55;;;;;;;;;;;9.70;99.90;;;;;;5089533;28;20315;-72
2022/05/15 03:25:21;;;;;;;;;;;9.60;99.90;;;;;;5089266;28;19916;-72
2022/05/15 03:27:46;;;;;;;;;;;9.40;99.90;;;;;;5088414;28;20311;-72
2022/05/15 03:30:12;;;;;;;;;;;9.30;99.90;;;;;;5088377;28;19912;-72
2022/05/15 03:32:38;;;;;;;;;;;9.30;99.90;;;;;;5093397;28;19916;-72
2022/05/15 03:35:06;;;;;;;;;;;9.20;99.90;;;;;;5093164;28;19974;-72
2022/05/15 03:37:31;;;;;;;;;;;9.10;99.90;;;;;;5090430;28;20269;-72
2022/05/15 03:39:57;;;;;;;;;;;9.10;99.90;;;;;;5093217;28;19912;-72
2022/05/15 03:42:24;;;;;;;;;;;9.00;99.90;;;;;;5093206;28;19912;-72
2022/05/15 03:44:51;;;;;;;;;;;8.90;99.90;;;;;;5090945;28;19923;-72
2022/05/15 03:47:16;;;;;;;;;;;8.90;99.90;;;;;;5095966;28;19923;-72
2022/05/15 03:49:42;;;;;;;;;;;8.80;99.90;;;;;;5079674;28;19909;-72
2022/05/15 03:52:08;;;;;;;;;;;8.80;99.90;;;;;;5083177;28;19939;-72
2022/05/15 03:54:33;;;;;;;;;;;8.90;99.90;;;;;;5075847;28;19912;-72
2022/05/15 03:56:59;;;;;;;;;;;9.00;99.90;;;;;;5077419;28;20473;-71
2022/05/15 03:59:27;;;;;;;;;;;9.10;99.90;;;;;;5084842;28;19908;-72
2022/05/15 04:01:53;;;;;;;;;;;9.10;99.90;;;;;;5074249;28;19912;-71
2022/05/15 04:04:19;;;;;;;;;;;9.20;99.90;;;;;;5075318;28;19909;-72
2022/05/15 04:06:45;;;;;;;;;;;9.30;99.90;;;;;;5075601;28;19909;-71
2022/05/15 04:09:11;;;;;;;;;;;9.40;99.90;;;;;;5076585;28;20011;-72
2022/05/15 04:11:36;;;;;;;;;;;9.50;99.90;;;;;;5075485;28;19917;-72
2022/05/15 04:14:02;;;;;;;;;;;9.60;99.90;;;;;;5078419;28;19970;-72
2022/05/15 04:16:28;;;;;;;;;;;9.70;99.90;;;;;;5057197;28;19917;-71
2022/05/15 04:18:55;;;;;;;;;;;9.70;99.90;;;;;;5074209;28;20345;-72
2022/05/15 04:21:20;;;;;;;;;;;9.80;99.90;;;;;;5080389;28;19920;-72
2022/05/15 04:23:46;;;;;;;;;;;9.80;99.90;;;;;;5074266;28;19912;-72
2022/05/15 04:26:11;;;;;;;;;;;9.90;99.90;;;;;;5075476;28;19913;-72
2022/05/15 04:28:37;;;;;;;;;;;10.00;99.90;;;;;;5075081;28;19916;-72
2022/05/15 04:31:03;;;;;;;;;;;10.10;99.90;;;;;;5077397;28;19993;-73
2022/05/15 04:33:29;;;;;;;;;;;10.20;99.90;;;;;;5077124;28;20327;-72
2022/05/15 04:35:54;;;;;;;;;;;10.30;99.90;;;;;;5095399;28;19916;-72
2022/05/15 04:38:20;;;;;;;;;;;10.40;99.90;;;;;;5095049;28;20003;-72
2022/05/15 04:40:45;;;;;;;;;;;10.50;99.90;;;;;;5088488;28;19963;-72
2022/05/15 04:43:11;;;;;;;;;;;10.50;99.90;;;;;;5074783;28;19923;-72
2022/05/15 04:45:36;;;;;;;;;;;10.60;99.90;;;;;;5075484;28;19966;-72
2022/05/15 04:48:02;;;;;;;;;;;10.70;99.90;;;;;;5074392;28;19916;-72
2022/05/15 04:50:28;;;;;;;;;;;10.80;99.90;;;;;;5077281;28;19912;-72
2022/05/15 04:52:53;;;;;;;;;;;11.00;99.90;;;;;;5075170;28;20417;-72
2022/05/15 04:55:19;;;;;;;;;;;11.00;99.90;;;;;;5075273;28;20357;-72
2022/05/15 04:57:44;;;;;;;;;;;11.00;99.90;;;;;;5081344;28;20278;-72
2022/05/15 05:00:12;;;;;;;;;;;11.00;99.90;;;;;;5075872;28;20244;-72
2022/05/15 05:02:37;;;;;;;;;;;11.00;99.90;;;;;;5075835;28;19974;-72
2022/05/15 05:05:03;;;;;;;;;;;11.00;99.90;;;;;;5075230;28;20295;-72
2022/05/15 05:07:29;;;;;;;;;;;11.10;99.90;;;;;;5091509;28;19975;-73
2022/05/15 05:09:54;;;;;;;;;;;11.10;99.90;;;;;;5093694;28;19910;-72
2022/05/15 05:12:21;;;;;;;;;;;11.20;99.90;;;;;;5075930;28;20038;-72
2022/05/15 05:14:46;;;;;;;;;;;11.20;99.90;;;;;;5074121;28;19916;-73
2022/05/15 05:17:12;;;;;;;;;;;11.20;99.90;;;;;;5074425;28;20192;-72
2022/05/15 05:19:38;;;;;;;;;;;11.40;99.90;;;;;;5073585;28;20017;-72
2022/05/15 05:22:04;;;;;;;;;;;11.50;99.90;;;;;;5078563;28;20316;-72
2022/05/15 05:24:29;;;;;;;;;;;11.80;99.90;;;;;;5080590;28;20323;-72
2022/05/15 05:26:55;;;;;;;;;;;12.00;99.90;;;;;;5081122;28;20299;-71
2022/05/15 05:29:20;;;;;;;;;;;12.20;99.90;;;;;;5080317;28;19916;-72
2022/05/15 05:31:47;;;;;;;;;;;12.40;99.90;;;;;;5077032;28;19917;-72
2022/05/15 05:34:12;;;;;;;;;;;12.50;99.90;;;;;;5079179;28;19913;-72
2022/05/15 05:36:38;;;;;;;;;;;12.60;99.90;;;;;;5078647;28;19920;-72
2022/05/15 05:39:04;;;;;;;;;;;12.70;99.90;;;;;;5077842;28;19951;-72
2022/05/15 05:41:29;;;;;;;;;;;12.80;99.90;;;;;;5080772;28;19942;-72
2022/05/15 05:43:55;;;;;;;;;;;12.80;99.90;;;;;;5077873;28;20342;-72
2022/05/15 05:46:21;;;;;;;;;;;12.90;99.90;;;;;;5077604;28;19913;-72
2022/05/15 05:48:47;;;;;;;;;;;12.90;99.90;;;;;;5079596;28;20357;-73
2022/05/15 05:51:13;;;;;;;;;;;13.10;99.90;;;;;;5077419;28;19912;-72
2022/05/15 05:53:39;;;;;;;;;;;13.10;99.90;;;;;;5077643;28;19913;-71
2022/05/15 05:56:05;;;;;;;;;;;13.10;99.90;;;;;;5079974;28;19934;-72
2022/05/15 05:58:30;;;;;;;;;;;13.20;99.90;;;;;;5080742;28;20306;-72
2022/05/15 06:00:56;;;;;;;;;;;13.20;99.90;;;;;;5077783;28;19917;-71
2022/05/15 06:06:06;;;;;;;;;;;13.30;99.90;;;;;;5078076;28;20007;-72
2022/05/15 06:08:32;;;;;;;;;;;13.30;99.90;;;;;;5077106;28;20006;-72
2022/05/15 06:10:57;;;;;;;;;;;13.40;99.90;;;;;;5086047;28;20226;-72
2022/05/15 06:13:23;;;;;;;;;;;13.50;99.90;;;;;;5086778;28;19951;-72
2022/05/15 06:15:49;;;;;;;;;;;13.60;99.90;;;;;;5087040;28;19994;-71
2022/05/15 06:18:15;;;;;;;;;;;13.60;99.90;;;;;;5090829;28;19912;-72
2022/05/15 06:20:40;;;;;;;;;;;13.70;99.90;;;;;;5089883;28;19946;-71
2022/05/15 06:23:06;;;;;;;;;;;13.80;99.90;;;;;;5086632;28;20010;-73
2022/05/15 06:25:31;;;;;;;;;;;14.00;99.90;;;;;;5082721;28;19912;-72
2022/05/15 06:27:57;;;;;;;;;;;14.00;99.90;;;;;;5089074;28;19912;-71
2022/05/15 06:30:23;;;;;;;;;;;14.10;99.90;;;;;;5081653;28;19919;-72
2022/05/15 06:32:48;;;;;;;;;;;14.10;99.90;;;;;;5102477;28;20362;-73
2022/05/15 06:35:15;;;;;;;;;;;14.20;99.90;;;;;;5094789;28;19923;-72
2022/05/15 06:37:41;;;;;;;;;;;14.30;99.90;;;;;;5084857;28;20246;-71
2022/05/15 06:40:08;;;;;;;;;;;14.40;99.90;;;;;;5086903;28;19959;-72
2022/05/15 06:42:34;;;;;;;;;;;14.50;99.90;;;;;;5093436;28;19912;-72
2022/05/15 06:45:00;;;;;;;;;;;14.50;99.90;;;;;;5086576;28;19920;-72
2022/05/15 06:47:25;;;;;;;;;;;14.60;99.90;;;;;;5088793;28;19955;-71
2022/05/15 06:49:51;;;;;;;;;;;14.70;99.90;;;;;;5092124;28;20396;-71
2022/05/15 06:52:17;;;;;;;;;;;14.70;99.90;;;;;;5092543;28;20011;-73
2022/05/15 06:54:43;;;;;;;;;;;14.80;99.90;;;;;;5093731;28;19912;-71
2022/05/15 06:59:52;;;;;;;;;;;14.90;99.90;;;;;;5094938;28;19926;-71
2022/05/15 07:02:18;;;;;;;;;;;15.00;99.90;;;;;;5094125;28;19912;-71
2022/05/15 07:04:44;;;;;;;;;;;15.00;99.90;;;;;;5094977;28;19941;-71
2022/05/15 07:07:10;;;;;;;;;;;15.10;99.90;;;;;;5094024;28;19920;-71
2022/05/15 07:09:36;;;;;;;;;;;15.10;99.90;;;;;;5094931;28;19912;-71
2022/05/15 07:12:03;;;;;;;;;;;15.30;99.90;;;;;;5093695;28;19924;-72
2022/05/15 07:14:29;;;;;;;;;;;15.30;99.90;;;;;;5095284;28;19912;-71
2022/05/15 07:16:55;;;;;;;;;;;15.40;99.90;;;;;;5094881;28;19950;-71
2022/05/15 07:19:20;;;;;;;;;;;15.40;99.90;;;;;;5094757;28;19920;-71
2022/05/15 07:21:46;;;;;;;;;;;15.50;99.90;;;;;;5093669;28;19939;-72
2022/05/15 07:24:12;;;;;;;;;;;15.60;99.90;;;;;;5093534;28;20239;-71
2022/05/15 07:26:44;;;;;;;;;;;15.80;99.90;;;;;;5092501;28;19917;-71
2022/05/15 07:29:11;;;;;;;;;;;16.10;99.90;;;;;;5091885;28;19916;-71
2022/05/15 07:31:36;;;;;;;;;;;16.30;99.90;;;;;;5093427;28;19924;-71
2022/05/15 07:34:02;;;;;;;;;;;16.50;99.90;;;;;;5093091;28;20315;-71
2022/05/15 07:36:28;;;;;;;;;;;16.70;99.90;;;;;;5089661;28;20016;-71
2022/05/15 07:38:53;;;;;;;;;;;17.00;99.90;;;;;;5089826;28;20200;-74
2022/05/15 07:41:19;;;;;;;;;;;17.40;99.90;;;;;;5091481;28;19920;-71
2022/05/15 07:43:45;;;;;;;;;;;17.60;99.90;;;;;;5094933;28;20227;-71
2022/05/15 07:46:10;;;;;;;;;;;17.90;99.90;;;;;;5095945;28;20319;-72
2022/05/15 07:48:36;;;;;;;;;;;18.20;99.90;;;;;;5096171;28;19912;-71
2022/05/15 07:51:02;;;;;;;;;;;18.30;99.90;;;;;;5094687;28;19912;-71
2022/05/15 07:53:27;;;;;;;;;;;18.40;99.90;;;;;;5089419;28;19916;-71
2022/05/15 07:55:53;;;;;;;;;;;18.50;99.90;;;;;;5093684;28;19978;-71
2022/05/15 07:58:19;;;;;;;;;;;18.60;99.90;;;;;;5095734;28;19908;-70
2022/05/15 08:00:45;;;;;;;;;;;18.90;99.90;;;;;;5095639;28;19977;-71
2022/05/15 08:03:11;;;;;;;;;;;19.00;99.90;;;;;;5094739;28;19931;-71
2022/05/15 08:08:22;;;;;;;;;;;19.50;99.90;;;;;;5089186;28;19923;-71
2022/05/15 08:10:48;;;;;;;;;;;19.50;99.90;;;;;;5078100;28;20230;-71
2022/05/15 08:13:15;;;;;;;;;;;19.70;99.90;;;;;;5084543;28;20321;-71
2022/05/15 08:15:42;;;;;;;;;;;19.80;99.90;;;;;;5089207;28;19912;-71
2022/05/15 08:23:40;;;;;;;;;;;20.20;99.90;;;;;;5088965;28;20034;-71
2022/05/15 08:26:06;;;;;;;;;;;20.20;99.90;;;;;;5081750;28;20219;-71
2022/05/15 08:28:33;;;;;;;;;;;20.10;99.90;;;;;;5089789;28;19999;-71
2022/05/15 08:30:59;;;;;;;;;;;20.10;99.90;;;;;;5093816;28;19912;-71
2022/05/15 08:33:26;;;;;;;;;;;20.20;99.90;;;;;;5087372;28;19926;-71
2022/05/15 08:35:51;;;;;;;;;;;20.30;99.90;;;;;;5087334;28;19923;-71
2022/05/15 08:38:18;;;;;;;;;;;20.60;99.90;;;;;;5080967;28;19913;-71
2022/05/15 08:40:53;;;;;;;;;;;20.80;99.90;;;;;;5074979;28;19923;-73
2022/05/15 08:43:20;;;;;;;;;;;20.90;99.90;;;;;;5082953;28;19912;-72
2022/05/15 08:45:53;;;;;;;;;;;20.90;99.90;;;;;;5085332;28;19916;-71
2022/05/15 08:48:19;;;;;;;;;;;21.00;99.90;;;;;;5073900;28;19909;-71
2022/05/15 08:50:48;;;;;;;;;;;21.10;99.90;;;;;;5079457;28;19986;-71
2022/05/15 08:53:22;;;;;;;;;;;21.40;99.90;;;;;;5077651;28;19924;-71
2022/05/15 08:55:49;;;;;;;;;;;21.20;99.90;;;;;;5080231;28;19912;-71
2022/05/15 08:58:19;;;;;;;;;;;21.10;99.90;;;;;;5086896;28;19920;-71
2022/05/15 09:00:50;;;;;;;;;;;21.10;99.90;;;;;;5085799;28;19966;-71
2022/05/15 09:03:18;;;;;;;;;;;21.10;99.90;;;;;;5092264;28;19916;-72
2022/05/15 09:06:02;;;;;;;;;;;21.10;99.90;;;;;;5081589;28;19916;-72
2022/05/15 09:08:27;;;;;;;;;;;21.10;99.90;;;;;;5078322;28;19908;-73
2022/05/15 09:11:12;;;;;;;;;;;21.20;99.90;;;;;;5086814;28;20386;-74
2022/05/15 09:13:39;;;;;;;;;;;21.30;99.90;;;;;;5094233;28;19920;-73
2022/05/15 09:16:07;;;;;;;;;;;21.30;99.90;;;;;;5089123;28;19916;-72
2022/05/15 09:18:34;;;;;;;;;;;21.50;99.90;;;;;;5093133;28;19912;-72
2022/05/15 09:21:03;;;;;;;;;;;21.70;99.90;;;;;;5087374;28;19912;-72
2022/05/15 09:23:34;;;;;;;;;;;21.70;99.90;;;;;;5096712;28;19954;-73
2022/05/15 09:26:01;;;;;;;;;;;21.70;99.90;;;;;;5097158;28;19924;-73
2022/05/15 09:28:28;;;;;;;;;;;22.00;99.90;;;;;;5091721;28;20011;-72
2022/05/15 09:30:57;;;;;;;;;;;22.10;99.90;;;;;;5081190;28;20299;-72
2022/05/15 09:33:26;;;;;;;;;;;22.40;99.90;;;;;;5078018;28;20319;-73
2022/05/15 09:36:12;;;;;;;;;;;22.40;99.90;;;;;;5078302;28;19936;-72
2022/05/15 09:38:38;;;;;;;;;;;22.50;99.90;;;;;;5081151;28;19912;-72
2022/05/15 09:44:27;;;;;;;;;;;22.80;99.90;;;;;;5075914;28;20342;-72
2022/05/15 09:46:58;;;;;;;;;;;22.80;99.60;;;;;;5077385;28;20279;-72
2022/05/15 09:49:26;;;;;;;;;;;22.70;99.90;;;;;;5076928;28;19916;-72
2022/05/15 09:51:53;;;;;;;;;;;22.70;99.20;;;;;;5077832;28;19920;-72
2022/05/15 09:54:28;;;;;;;;;;;22.90;99.70;;;;;;5077995;28;19912;-72
2022/05/15 09:57:07;;;;;;;;;;;23.00;99.90;;;;;;5077620;28;19909;-71
2022/05/15 09:59:32;;;;;;;;;;;23.10;99.30;;;;;;5076880;28;19952;-71
2022/05/15 10:01:58;;;;;;;;;;;23.10;99.40;;;;;;5081750;28;19963;-71
2022/05/15 10:04:25;;;;;;;;;;;23.30;97.80;;;;;;5096386;28;20061;-71
2022/05/15 10:06:53;;;;;;;;;;;23.30;98.20;;;;;;5097319;28;19948;-72
2022/05/15 10:09:31;;;;;;;;;;;23.50;99.30;;;;;;5091594;28;19950;-70
2022/05/15 10:12:01;;;;;;;;;;;23.50;97.80;;;;;;5076090;28;20200;-70
2022/05/15 10:14:31;;;;;;;;;;;23.60;98.00;;;;;;5077364;28;19963;-72
2022/05/15 10:16:58;;;;;;;;;;;23.70;97.30;;;;;;5077442;28;19909;-71
2022/05/15 10:19:24;;;;;;;;;;;23.60;97.10;;;;;;5076629;28;19916;-70
2022/05/15 10:22:05;;;;;;;;;;;23.60;96.80;;;;;;5077512;28;19942;-71
2022/05/15 10:24:33;;;;;;;;;;;23.50;96.40;;;;;;5076244;28;19909;-70
2022/05/15 10:26:59;;;;;;;;;;;23.50;96.20;;;;;;5078219;28;20227;-70
2022/05/15 10:29:43;;;;;;;;;;;23.50;96.30;;;;;;5096706;28;19908;-70
2022/05/15 10:32:12;;;;;;;;;;;23.70;95.60;;;;;;5076801;28;20002;-70
2022/05/15 10:34:37;;;;;;;;;;;23.70;96.90;;;;;;5075897;28;19909;-70
2022/05/15 10:37:17;;;;;;;;;;;23.90;96.20;;;;;;5076930;28;19931;-70
2022/05/15 10:40:03;;;;;;;;;;;24.10;95.90;;;;;;5076713;28;19923;-70
2022/05/15 10:42:47;;;;;;;;;;;24.00;94.90;;;;;;5076664;28;19908;-70
2022/05/15 10:45:18;;;;;;;;;;;24.10;95.20;;;;;;5076891;28;19955;-70
2022/05/15 10:47:49;;;;;;;;;;;24.20;95.90;;;;;;5076602;28;19915;-70
2022/05/15 10:50:33;;;;;;;;;;;24.30;94.50;;;;;;5075584;28;19916;-70
2022/05/15 10:59:34;;;;;;;;;;;25.00;94.00;;;;;;5075986;28;19918;-70
2022/05/15 11:02:03;;;;;;;;;;;25.00;94.60;;;;;;5080355;28;20291;-70
2022/05/15 11:04:41;;;;;;;;;;;25.30;93.30;;;;;;5078436;28;20003;-71
2022/05/15 11:07:16;;;;;;;;;;;25.50;93.90;;;;;;5092808;28;19961;-70
2022/05/15 11:09:51;;;;;;;;;;;25.40;92.30;;;;;;5096020;28;19951;-69
2022/05/15 11:12:23;;;;;;;;;;;25.30;93.60;;;;;;5094493;28;20007;-70
2022/05/15 11:15:01;;;;;;;;;;;25.50;93.20;;;;;;5095169;28;19923;-71
2022/05/15 11:17:49;;;;;;;;;;;25.20;94.00;;;;;;5095516;28;19912;-70
2022/05/15 11:20:20;;;;;;;;;;;25.20;94.20;;;;;;5087463;28;19957;-70
2022/05/15 11:22:47;;;;;;;;;;;25.00;93.50;;;;;;5078485;28;20015;-70
2022/05/15 11:25:22;;;;;;;;;;;24.80;94.10;;;;;;5074899;28;20015;-71
2022/05/15 11:27:55;;;;;;;;;;;24.70;95.10;;;;;;5075908;28;19993;-70
2022/05/15 11:30:29;;;;;;;;;;;24.80;94.10;;;;;;5075983;28;20334;-71
2022/05/15 11:32:55;;;;;;;;;;;24.90;93.40;;;;;;5076366;28;19916;-70
2022/05/15 11:35:23;;;;;;;;;;;24.50;93.40;;;;;;5096194;28;19915;-70
2022/05/15 11:37:54;;;;;;;;;;;24.70;94.60;;;;;;5095979;28;19908;-70
2022/05/15 11:40:38;;;;;;;;;;;24.50;93.50;;;;;;5095941;28;19915;-70
2022/05/15 11:43:22;;;;;;;;;;;24.80;92.60;;;;;;5094903;28;19915;-71
2022/05/15 11:45:48;;;;;;;;;;;25.10;94.10;;;;;;5075701;28;20360;-71
2022/05/15 11:48:17;;;;;;;;;;;25.20;91.20;;;;;;5074449;28;19912;-70
2022/05/15 11:50:57;;;;;;;;;;;25.20;91.80;;;;;;5075673;28;20341;-71
2022/05/15 11:53:25;;;;;;;;;;;25.10;91.30;;;;;;5074541;28;19912;-71
2022/05/15 11:55:52;;;;;;;;;;;25.10;91.50;;;;;;5075831;28;19909;-70
2022/05/15 11:58:26;;;;;;;;;;;25.20;92.80;;;;;;5075395;28;19908;-70
2022/05/15 12:01:09;;;;;;;;;;;25.20;91.00;;;;;;5075962;28;20261;-71
2022/05/15 12:03:52;;;;;;;;;;;25.30;90.30;;;;;;5075347;28;19999;-70
2022/05/15 12:06:19;;;;;;;;;;;25.20;91.10;;;;;;5089001;28;19944;-70
2022/05/15 12:08:49;;;;;;;;;;;25.20;92.10;;;;;;5092567;28;20006;-70
2022/05/15 12:11:14;;;;;;;;;;;25.20;90.40;;;;;;5091077;28;20330;-70
2022/05/15 12:13:41;;;;;;;;;;;25.30;91.00;;;;;;5095358;28;19924;-70
2022/05/15 12:16:15;;;;;;;;;;;25.40;89.00;;;;;;5093944;28;19986;-70
2022/05/15 12:18:43;;;;;;;;;;;25.10;90.00;;;;;;5093606;28;19942;-70
2022/05/15 12:21:09;;;;;;;;;;;25.00;90.30;;;;;;5092771;28;19916;-69
2022/05/15 12:26:35;;;;;;;;;;;25.10;90.50;;;;;;5093697;28;19966;-69
2022/05/15 12:29:01;;;;;;;;;;;25.10;87.30;;;;;;5096307;28;19912;-69
2022/05/15 12:31:30;;;;;;;;;;;25.10;92.30;;;;;;5096389;28;20356;-70
2022/05/15 12:34:04;;;;;;;;;;;25.10;90.90;;;;;;5097958;28;19920;-70
2022/05/15 12:36:29;;;;;;;;;;;25.10;90.00;;;;;;5094146;28;19916;-69
2022/05/15 12:38:55;;;;;;;;;;;25.10;90.80;;;;;;5092247;28;20322;-70
2022/05/15 12:41:25;;;;;;;;;;;25.20;90.40;;;;;;5095552;28;19916;-69
2022/05/15 12:43:51;;;;;;;;;;;25.70;86.70;;;;;;5092023;28;20268;-70
2022/05/15 12:46:24;;;;;;;;;;;25.90;88.40;;;;;;5090718;28;20007;-69
2022/05/15 12:48:50;;;;;;;;;;;26.00;89.50;;;;;;5092410;28;19912;-70
2022/05/15 12:51:23;;;;;;;;;;;26.20;89.50;;;;;;5090440;28;19918;-69
2022/05/15 12:53:50;;;;;;;;;;;26.20;86.50;;;;;;5094379;28;20406;-69
2022/05/15 12:56:32;;;;;;;;;;;26.40;86.80;;;;;;5087909;28;19913;-69
2022/05/15 12:59:13;;;;;;;;;;;26.40;90.00;;;;;;5088636;28;19951;-69
2022/05/15 13:01:39;;;;;;;;;;;26.60;88.80;;;;;;5097215;28;19919;-69
2022/05/15 13:04:06;;;;;;;;;;;26.60;86.20;;;;;;5084745;28;19916;-69
2022/05/15 13:06:37;;;;;;;;;;;26.60;86.00;;;;;;5078457;28;19927;-70
2022/05/15 13:09:04;;;;;;;;;;;26.40;85.50;;;;;;5082031;28;19915;-70
2022/05/15 13:11:50;;;;;;;;;;;26.20;85.30;;;;;;5085768;28;19912;-69
2022/05/15 13:14:28;;;;;;;;;;;26.20;87.00;;;;;;5100369;28;19958;-69
2022/05/15 13:16:54;;;;;;;;;;;26.60;85.90;;;;;;5096261;28;19988;-69
2022/05/15 13:19:25;;;;;;;;;;;26.80;84.40;;;;;;5080688;28;19916;-69
2022/05/15 13:21:53;;;;;;;;;;;26.90;85.50;;;;;;5078332;28;19924;-69
2022/05/15 13:24:19;;;;;;;;;;;27.30;82.20;;;;;;5088232;28;19908;-70
2022/05/15 13:26:46;;;;;;;;;;;27.20;83.90;;;;;;5090753;28;20328;-69
2022/05/15 13:29:14;;;;;;;;;;;27.20;80.60;;;;;;5092112;28;20023;-69
2022/05/15 13:31:41;;;;;;;;;;;27.10;83.00;;;;;;5090346;28;19960;-69
2022/05/15 13:34:09;;;;;;;;;;;27.20;85.80;;;;;;5086695;28;19923;-69
2022/05/15 13:36:37;;;;;;;;;;;27.10;83.70;;;;;;5086645;28;19912;-69
2022/05/15 13:44:34;;;;;;;;;;;26.80;80.80;;;;;;5098302;28;19942;-69
2022/05/15 13:47:00;;;;;;;;;;;26.60;80.60;;;;;;5082722;28;20294;-69
2022/05/15 13:49:36;;;;;;;;;;;26.60;82.30;;;;;;5087451;28;20004;-69
2022/05/15 13:52:19;;;;;;;;;;;26.80;82.20;;;;;;5089781;28;19912;-69
2022/05/15 13:54:45;;;;;;;;;;;26.60;82.40;;;;;;5086560;28;20011;-70
2022/05/15 13:57:11;;;;;;;;;;;26.60;81.60;;;;;;5077639;28;19955;-70
2022/05/15 13:59:44;;;;;;;;;;;26.40;83.00;;;;;;5077831;28;19916;-69
2022/05/15 14:02:23;;;;;;;;;;;26.30;80.80;;;;;;5086954;28;20211;-69
2022/05/15 14:04:54;;;;;;;;;;;26.40;81.90;;;;;;5096691;28;19915;-69
2022/05/15 14:07:27;;;;;;;;;;;26.60;83.40;;;;;;5096680;28;19908;-69
2022/05/15 14:09:55;;;;;;;;;;;26.80;84.40;;;;;;5080111;28;20280;-69
2022/05/15 14:12:37;;;;;;;;;;;26.80;82.50;;;;;;5083163;28;19924;-70
2022/05/15 14:15:05;;;;;;;;;;;26.70;80.90;;;;;;5092044;28;19912;-70
2022/05/15 14:17:53;;;;;;;;;;;26.50;79.80;;;;;;5079164;28;19973;-69
2022/05/15 14:20:26;;;;;;;;;;;26.50;83.10;;;;;;5082403;28;19921;-69
2022/05/15 14:22:51;;;;;;;;;;;26.30;80.50;;;;;;5079598;28;19955;-69
2022/05/15 14:25:17;;;;;;;;;;;26.30;81.80;;;;;;5089781;28;19959;-69
2022/05/15 14:27:43;;;;;;;;;;;26.30;81.70;;;;;;5085063;28;20325;-69
2022/05/15 14:30:09;;;;;;;;;;;26.50;81.30;;;;;;5086775;28;20283;-69
2022/05/15 14:32:35;;;;;;;;;;;26.40;81.60;;;;;;5082740;28;20011;-70
2022/05/15 14:35:04;;;;;;;;;;;26.40;80.40;;;;;;5094036;28;19912;-69
2022/05/15 14:37:30;;;;;;;;;;;26.30;80.90;;;;;;5093445;28;20210;-69
2022/05/15 14:39:56;;;;;;;;;;;26.30;81.50;;;;;;5082097;28;19928;-69
2022/05/15 14:42:22;;;;;;;;;;;26.10;82.50;;;;;;5072823;28;19920;-69
2022/05/15 14:44:48;;;;;;;;;;;26.10;83.00;;;;;;5080101;28;19912;-69
2022/05/15 14:47:16;;;;;;;;;;;25.90;80.70;;;;;;5092431;28;20251;-70
2022/05/15 14:49:43;;;;;;;;;;;26.10;82.20;;;;;;5086678;28;19927;-69
2022/05/15 14:52:09;;;;;;;;;;;26.20;84.90;;;;;;5073192;28;20007;-70
2022/05/15 14:54:36;;;;;;;;;;;26.10;80.40;;;;;;5086588;28;20287;-69
2022/05/15 14:57:02;;;;;;;;;;;26.50;79.50;;;;;;5092070;28;19916;-69
2022/05/15 14:59:28;;;;;;;;;;;26.90;74.40;;;;;;5090104;28;19938;-69